createdAt,value
2019-02-05T00:01:22.980Z,100395.42
2019-02-05T00:03:49.264Z,100396.34
2019-02-05T00:06:15.664Z,100397.77
2019-02-05T00:08:41.836Z,100397.56
2019-02-05T00:11:07.994Z,100403.70
2019-02-05T00:13:34.298Z,100405.32
2019-02-05T00:16:00.585Z,100404.48
2019-02-05T00:18:26.766Z,100410.95
2019-02-05T00:20:52.967Z,100410.04
2019-02-05T00:23:19.142Z,100410.19
2019-02-05T00:25:45.319Z,100419.65
2019-02-05T00:28:11.503Z,100417.41
2019-02-05T00:30:37.780Z,100423.59
2019-02-05T00:33:05.117Z,100419.80
2019-02-05T00:35:31.325Z,100428.25
2019-02-05T00:37:57.490Z,100431.38
2019-02-05T00:40:23.667Z,100424.98
2019-02-05T00:42:49.966Z,100428.64
2019-02-05T00:45:17.742Z,100422.44
2019-02-05T00:47:44.002Z,100427.47
2019-02-05T00:50:12.417Z,100432.70
2019-02-05T00:52:38.579Z,100426.44
2019-02-05T00:55:08.362Z,100424.51
2019-02-05T00:57:34.675Z,100414.75
2019-02-05T01:00:00.952Z,100418.45
2019-02-05T01:02:27.171Z,100420.23
2019-02-05T01:04:53.688Z,100414.94
2019-02-05T01:07:19.959Z,100418.37
2019-02-05T01:09:46.134Z,100411.75
2019-02-05T01:12:12.334Z,100410.47
2019-02-05T01:14:38.497Z,100407.70
2019-02-05T01:17:04.772Z,100410.02
2019-02-05T01:19:30.965Z,100401.95
2019-02-05T01:21:58.069Z,100401.96
2019-02-05T01:24:24.858Z,100405.47
2019-02-05T01:26:51.069Z,100401.88
2019-02-05T01:29:17.227Z,100406.98
2019-02-05T01:31:43.498Z,100405.50
2019-02-05T01:34:09.795Z,100410.27
2019-02-05T01:36:35.950Z,100415.12
2019-02-05T01:39:04.226Z,100423.05
2019-02-05T01:41:30.928Z,100417.05
2019-02-05T01:43:57.107Z,100416.45
2019-02-05T01:46:23.267Z,100417.34
2019-02-05T01:48:49.454Z,100420.84
2019-02-05T01:51:17.615Z,100410.63
2019-02-05T01:53:46.425Z,100414.73
2019-02-05T01:56:12.622Z,100408.60
2019-02-05T01:58:38.789Z,100413.11
2019-02-05T02:01:05.657Z,100416.46
2019-02-05T02:03:32.016Z,100418.08
2019-02-05T02:05:58.286Z,100419.30
2019-02-05T02:08:24.451Z,100410.23
2019-02-05T02:10:50.750Z,100417.62
2019-02-05T02:13:17.010Z,100412.84
2019-02-05T02:15:43.280Z,100416.87
2019-02-05T02:18:09.471Z,100421.21
2019-02-05T02:20:36.249Z,100413.92
2019-02-05T02:23:02.513Z,100416.02
2019-02-05T02:25:28.813Z,100415.34
2019-02-05T02:27:55.081Z,100411.98
2019-02-05T02:30:27.518Z,100404.23
2019-02-05T02:32:53.806Z,100397.14
2019-02-05T02:35:19.962Z,100401.48
2019-02-05T02:37:46.128Z,100397.33
2019-02-05T02:40:12.329Z,100393.56
2019-02-05T02:42:38.583Z,100391.92
2019-02-05T02:45:08.356Z,100392.80
2019-02-05T02:47:34.549Z,100393.30
2019-02-05T02:50:00.713Z,100393.61
2019-02-05T02:52:26.876Z,100393.23
2019-02-05T02:54:53.178Z,100396.77
2019-02-05T02:57:21.144Z,100388.95
2019-02-05T02:59:47.308Z,100391.34
2019-02-05T03:02:13.607Z,100393.28
2019-02-05T03:04:39.828Z,100381.20
2019-02-05T03:07:06.097Z,100397.13
2019-02-05T03:09:32.416Z,100392.92
2019-02-05T03:11:58.700Z,100393.94
2019-02-05T03:14:24.981Z,100389.91
2019-02-05T03:16:51.201Z,100392.59
2019-02-05T03:19:17.889Z,100396.63
2019-02-05T03:21:44.277Z,100402.22
2019-02-05T03:24:10.569Z,100409.47
2019-02-05T03:26:36.847Z,100404.47
2019-02-05T03:29:03.312Z,100408.61
2019-02-05T03:31:29.522Z,100410.27
2019-02-05T03:33:55.812Z,100415.42
2019-02-05T03:36:22.085Z,100412.62
2019-02-05T03:38:48.266Z,100415.32
2019-02-05T03:41:14.426Z,100413.61
2019-02-05T03:43:41.187Z,100416.26
2019-02-05T03:46:08.671Z,100421.98
2019-02-05T03:48:36.245Z,100426.46
2019-02-05T03:51:08.880Z,100420.72
2019-02-05T03:53:41.571Z,100423.59
2019-02-05T03:56:23.419Z,100422.74
2019-02-05T03:59:08.337Z,100418.70
2019-02-05T04:01:53.083Z,100414.66
2019-02-05T04:04:55.846Z,100409.03
2019-02-05T04:07:28.749Z,100414.59
2019-02-05T04:10:24.894Z,100409.05
2019-02-05T04:13:14.438Z,100417.64
2019-02-05T04:15:56.602Z,100411.48
2019-02-05T04:18:29.443Z,100416.48
2019-02-05T04:21:11.332Z,100411.39
2019-02-05T04:23:47.252Z,100410.67
2019-02-05T04:26:37.891Z,100409.84
2019-02-05T04:29:44.026Z,100411.53
2019-02-05T04:32:28.967Z,100414.97
2019-02-05T04:35:22.786Z,100408.25
2019-02-05T04:38:04.975Z,100412.17
2019-02-05T04:41:06.725Z,100415.44
2019-02-05T04:43:57.131Z,100416.19
2019-02-05T04:46:43.922Z,100419.10
2019-02-05T04:49:29.132Z,100411.65
2019-02-05T04:52:15.627Z,100413.45
2019-02-05T04:54:52.522Z,100420.69
2019-02-05T04:57:57.069Z,100420.25
2019-02-05T05:00:27.194Z,100422.80
2019-02-05T05:03:02.730Z,100422.49
2019-02-05T05:05:44.726Z,100422.86
2019-02-05T05:08:35.757Z,100430.53
2019-02-05T05:11:01.949Z,100434.31
2019-02-05T05:13:28.712Z,100425.29
2019-02-05T05:15:54.880Z,100430.81
2019-02-05T05:18:21.079Z,100420.74
2019-02-05T05:20:47.450Z,100420.41
2019-02-05T05:23:15.148Z,100420.40
2019-02-05T05:25:41.674Z,100421.52
2019-02-05T05:28:10.282Z,100427.70
2019-02-05T05:30:38.107Z,100444.80
2019-02-05T05:33:04.418Z,100452.36
2019-02-05T05:35:41.681Z,100459.77
2019-02-05T05:37:59.249Z,100465.13
2019-02-05T05:40:25.571Z,100460.98
2019-02-05T05:42:51.741Z,100458.56
2019-02-05T05:45:17.911Z,100461.89
2019-02-05T05:47:44.120Z,100462.50
2019-02-05T05:50:12.997Z,100465.84
2019-02-05T05:52:39.271Z,100471.07
2019-02-05T05:55:06.073Z,100481.41
2019-02-05T05:57:32.550Z,100489.78
2019-02-05T05:59:58.709Z,100490.77
2019-02-05T06:02:25.064Z,100487.23
2019-02-05T06:04:51.329Z,100494.30
2019-02-05T06:07:17.610Z,100498.70
2019-02-05T06:09:44.248Z,100487.00
2019-02-05T06:12:10.420Z,100487.59
2019-02-05T06:14:36.588Z,100490.80
2019-02-05T06:17:03.284Z,100492.42
2019-02-05T06:19:29.446Z,100488.86
2019-02-05T06:21:55.712Z,100484.75
2019-02-05T06:24:22.104Z,100487.27
2019-02-05T06:26:48.279Z,100481.17
2019-02-05T06:29:14.458Z,100490.55
2019-02-05T06:31:41.023Z,100490.31
2019-02-05T06:34:07.347Z,100490.50
2019-02-05T06:36:33.613Z,100497.31
2019-02-05T06:39:00.178Z,100500.86
2019-02-05T06:41:26.335Z,100499.84
2019-02-05T06:43:52.487Z,100499.31
2019-02-05T06:46:18.793Z,100504.16
2019-02-05T06:48:44.966Z,100497.96
2019-02-05T06:51:11.229Z,100499.09
2019-02-05T06:53:37.680Z,100495.72
2019-02-05T06:56:03.847Z,100500.08
2019-02-05T06:58:30.006Z,100488.97
2019-02-05T07:00:56.601Z,100489.58
2019-02-05T07:03:22.775Z,100494.78
2019-02-05T07:05:49.050Z,100498.80
2019-02-05T07:08:15.400Z,100497.91
2019-02-05T07:10:43.579Z,100500.72
2019-02-05T07:13:09.822Z,100498.03
2019-02-05T07:15:36.006Z,100488.58
2019-02-05T07:18:02.279Z,100496.36
2019-02-05T07:20:28.528Z,100491.18
2019-02-05T07:22:55.766Z,100501.15
2019-02-05T07:25:22.174Z,100501.41
2019-02-05T07:27:49.567Z,100502.80
2019-02-05T07:30:26.219Z,100501.92
2019-02-05T07:32:52.391Z,100498.84
2019-02-05T07:35:18.662Z,100498.12
2019-02-05T07:37:44.951Z,100505.52
2019-02-05T07:40:14.820Z,100505.30
2019-02-05T07:42:40.979Z,100495.91
2019-02-05T07:45:10.592Z,100490.68
2019-02-05T07:47:37.908Z,100490.31
2019-02-05T07:50:07.687Z,100486.80
2019-02-05T07:52:34.004Z,100478.83
2019-02-05T07:55:00.355Z,100480.66
2019-02-05T07:57:26.540Z,100477.73
2019-02-05T07:59:52.735Z,100479.92
2019-02-05T08:02:19.302Z,100483.63
2019-02-05T08:04:45.561Z,100481.09
2019-02-05T08:07:11.776Z,100486.20
2019-02-05T08:09:37.987Z,100476.97
2019-02-05T08:12:04.274Z,100474.02
2019-02-05T08:14:30.589Z,100475.27
2019-02-05T08:16:56.743Z,100477.31
2019-02-05T08:19:22.897Z,100476.56
2019-02-05T08:21:49.105Z,100473.34
2019-02-05T08:24:15.818Z,100468.04
2019-02-05T08:26:42.181Z,100468.48
2019-02-05T08:29:08.845Z,100477.14
2019-02-05T08:31:35.120Z,100473.91
2019-02-05T08:34:03.360Z,100466.69
2019-02-05T08:36:29.483Z,100473.91
2019-02-05T08:38:55.849Z,100476.06
2019-02-05T08:41:22.040Z,100472.27
2019-02-05T08:43:48.474Z,100478.33
2019-02-05T08:46:14.706Z,100471.42
2019-02-05T08:48:40.912Z,100474.09
2019-02-05T08:51:07.508Z,100482.16
2019-02-05T08:53:33.693Z,100472.41
2019-02-05T08:55:59.992Z,100481.53
2019-02-05T08:58:31.252Z,100485.09
2019-02-05T09:00:54.252Z,100487.96
2019-02-05T09:03:20.428Z,100484.53
2019-02-05T09:05:46.794Z,100481.74
2019-02-05T09:08:13.093Z,100486.39
2019-02-05T09:10:41.167Z,100482.51
2019-02-05T09:13:08.122Z,100478.45
2019-02-05T09:15:34.298Z,100483.05
2019-02-05T09:18:00.653Z,100477.59
2019-02-05T09:20:26.875Z,100469.20
2019-02-05T09:22:53.131Z,100476.27
2019-02-05T09:25:19.801Z,100479.00
2019-02-05T09:27:46.103Z,100475.38
2019-02-05T09:30:27.971Z,100474.52
2019-02-05T09:32:56.570Z,100474.26
2019-02-05T09:35:23.398Z,100475.88
2019-02-05T09:37:49.663Z,100477.20
2019-02-05T09:40:22.197Z,100472.67
2019-02-05T09:42:48.467Z,100468.98
2019-02-05T09:45:16.433Z,100464.55
2019-02-05T09:47:43.111Z,100465.27
2019-02-05T09:50:14.881Z,100469.70
2019-02-05T09:52:41.167Z,100465.53
2019-02-05T09:55:10.360Z,100459.52
2019-02-05T09:57:36.615Z,100457.77
2019-02-05T10:00:06.486Z,100463.84
2019-02-05T10:02:32.688Z,100460.13
2019-02-05T10:04:58.863Z,100468.16
2019-02-05T10:07:25.028Z,100458.38
2019-02-05T10:09:51.732Z,100452.08
2019-02-05T10:12:17.919Z,100453.03
2019-02-05T10:14:44.251Z,100445.50
2019-02-05T10:17:10.594Z,100442.36
2019-02-05T10:19:38.667Z,100452.93
2019-02-05T10:22:05.068Z,100452.52
2019-02-05T10:24:31.369Z,100454.18
2019-02-05T10:26:57.541Z,100451.97
2019-02-05T10:29:25.540Z,100451.91
2019-02-05T10:31:52.143Z,100449.78
2019-02-05T10:34:18.438Z,100454.65
2019-02-05T10:36:44.645Z,100458.84
2019-02-05T10:39:12.332Z,100455.00
2019-02-05T10:41:38.687Z,100449.58
2019-02-05T10:44:05.409Z,100455.09
2019-02-05T10:46:31.660Z,100444.82
2019-02-05T10:48:57.830Z,100445.77
2019-02-05T10:51:24.097Z,100441.01
2019-02-05T10:53:50.696Z,100448.16
2019-02-05T10:56:16.971Z,100447.55
2019-02-05T10:58:43.132Z,100439.77
2019-02-05T11:01:09.425Z,100435.69
2019-02-05T11:03:35.686Z,100431.87
2019-02-05T11:06:01.963Z,100428.67
2019-02-05T11:08:28.164Z,100425.58
2019-02-05T11:10:54.315Z,100428.13
2019-02-05T11:13:20.478Z,100421.53
2019-02-05T11:15:47.291Z,100416.37
2019-02-05T11:18:13.552Z,100410.12
2019-02-05T11:20:39.706Z,100402.30
2019-02-05T11:23:06.000Z,100399.08
2019-02-05T11:25:32.670Z,100398.35
2019-02-05T11:27:58.845Z,100400.90
2019-02-05T11:30:28.154Z,100396.50
2019-02-05T11:32:54.341Z,100399.80
2019-02-05T11:35:20.626Z,100399.86
2019-02-05T11:37:47.521Z,100394.94
2019-02-05T11:40:20.280Z,100387.84
2019-02-05T11:42:46.543Z,100391.79
2019-02-05T11:45:20.941Z,100385.13
2019-02-05T11:47:48.261Z,100384.30
2019-02-05T11:50:16.641Z,100386.25
2019-02-05T11:52:42.981Z,100384.50
2019-02-05T11:55:12.548Z,100384.59
2019-02-05T11:57:38.718Z,100388.41
2019-02-05T12:00:08.670Z,100386.06
2019-02-05T12:02:34.832Z,100387.03
2019-02-05T12:05:01.004Z,100377.81
2019-02-05T12:07:27.210Z,100380.58
2019-02-05T12:09:53.416Z,100376.95
2019-02-05T12:12:22.683Z,100376.51
2019-02-05T12:14:50.420Z,100380.13
2019-02-05T12:17:17.587Z,100366.97
2019-02-05T12:19:44.053Z,100374.23
2019-02-05T12:22:10.481Z,100372.88
2019-02-05T12:24:36.758Z,100363.23
2019-02-05T12:27:02.940Z,100370.34
2019-02-05T12:29:29.138Z,100366.86
2019-02-05T12:31:55.406Z,100366.86
2019-02-05T12:34:21.701Z,100366.45
2019-02-05T12:36:47.969Z,100355.69
2019-02-05T12:39:15.924Z,100364.88
2019-02-05T12:41:42.090Z,100362.52
2019-02-05T12:44:08.399Z,100361.68
2019-02-05T12:46:34.682Z,100362.86
2019-02-05T12:49:00.846Z,100363.16
2019-02-05T12:51:27.201Z,100370.05
2019-02-05T12:53:53.521Z,100359.58
2019-02-05T12:56:19.745Z,100360.41
2019-02-05T12:58:46.551Z,100356.88
2019-02-05T13:01:12.822Z,100355.52
2019-02-05T13:03:39.093Z,100350.09
2019-02-05T13:06:05.700Z,100355.39
2019-02-05T13:08:31.879Z,100352.64
2019-02-05T13:10:58.203Z,100360.00
2019-02-05T13:13:24.364Z,100353.23
2019-02-05T13:15:53.333Z,100354.61
2019-02-05T13:18:20.189Z,100350.75
2019-02-05T13:20:48.123Z,100354.56
2019-02-05T13:23:14.272Z,100353.47
2019-02-05T13:25:40.447Z,100359.57
2019-02-05T13:28:08.454Z,100360.70
2019-02-05T13:30:36.026Z,100354.78
2019-02-05T13:33:05.968Z,100363.94
2019-02-05T13:35:32.575Z,100368.12
2019-02-05T13:37:58.849Z,100367.73
2019-02-05T13:40:26.797Z,100368.76
2019-02-05T13:42:53.094Z,100358.64
2019-02-05T13:45:22.259Z,100362.13
2019-02-05T13:47:48.424Z,100363.73
2019-02-05T13:50:19.778Z,100366.57
2019-02-05T13:52:47.832Z,100353.56
2019-02-05T13:55:17.204Z,100349.88
2019-02-05T13:57:43.508Z,100357.84
2019-02-05T14:00:13.490Z,100363.48
2019-02-05T14:02:39.773Z,100353.13
2019-02-05T14:05:08.981Z,100353.33
2019-02-05T14:07:35.151Z,100357.99
2019-02-05T14:10:05.315Z,100361.47
2019-02-05T14:12:33.840Z,100363.77
2019-02-05T14:15:00.242Z,100367.84
2019-02-05T14:17:26.703Z,100359.45
2019-02-05T14:19:54.030Z,100356.56
2019-02-05T14:22:20.196Z,100354.20
2019-02-05T14:24:46.354Z,100354.67
2019-02-05T14:27:13.265Z,100354.81
2019-02-05T14:29:41.687Z,100357.28
2019-02-05T14:32:07.857Z,100361.12
2019-02-05T14:34:34.146Z,100365.76
2019-02-05T14:37:00.398Z,100368.27
2019-02-05T14:39:26.763Z,100364.18
2019-02-05T14:41:53.065Z,100372.89
2019-02-05T14:44:19.330Z,100366.17
2019-02-05T14:46:46.000Z,100367.38
2019-02-05T14:49:12.429Z,100368.70
2019-02-05T14:51:38.697Z,100368.84
2019-02-05T14:54:04.966Z,100364.27
2019-02-05T14:56:31.187Z,100364.72
2019-02-05T14:58:57.557Z,100360.78
2019-02-05T15:01:23.712Z,100365.26
2019-02-05T15:03:50.009Z,100357.95
2019-02-05T15:06:16.169Z,100359.48
2019-02-05T15:08:44.482Z,100356.45
2019-02-05T15:11:10.674Z,100353.44
2019-02-05T15:13:42.358Z,100353.11
2019-02-05T15:16:08.649Z,100350.90
2019-02-05T15:18:34.952Z,100356.25
2019-02-05T15:21:01.258Z,100360.52
2019-02-05T15:23:27.632Z,100359.70
2019-02-05T15:25:53.828Z,100356.08
2019-02-05T15:28:20.040Z,100361.32
2019-02-05T15:30:46.285Z,100363.47
2019-02-05T15:33:24.141Z,100356.59
2019-02-05T15:35:52.218Z,100362.78
2019-02-05T15:38:18.475Z,100365.11
2019-02-05T15:40:45.505Z,100368.86
2019-02-05T15:43:11.659Z,100368.77
2019-02-05T15:45:37.937Z,100371.38
2019-02-05T15:48:04.349Z,100372.44
2019-02-05T15:50:30.523Z,100368.16
2019-02-05T15:52:56.716Z,100373.14
2019-02-05T15:55:22.979Z,100372.99
2019-02-05T15:57:49.251Z,100367.44
2019-02-05T16:00:20.425Z,100378.46
2019-02-05T16:02:46.716Z,100378.23
2019-02-05T16:05:13.777Z,100381.81
2019-02-05T16:07:40.042Z,100388.16
2019-02-05T16:10:09.853Z,100393.30
2019-02-05T16:12:36.125Z,100391.73
2019-02-05T16:15:03.614Z,100396.44
2019-02-05T16:17:30.242Z,100402.81
2019-02-05T16:19:56.400Z,100397.11
2019-02-05T16:22:22.734Z,100397.14
2019-02-05T16:24:48.937Z,100403.23
2019-02-05T16:27:15.101Z,100407.95
2019-02-05T16:29:41.264Z,100403.22
2019-02-05T16:32:17.283Z,100400.69
2019-02-05T16:34:35.521Z,100402.57
2019-02-05T16:37:01.779Z,100401.03
2019-02-05T16:39:28.076Z,100395.83
2019-02-05T16:41:54.241Z,100395.33
2019-02-05T16:44:20.408Z,100390.44
2019-02-05T16:46:46.601Z,100394.48
2019-02-05T16:49:12.763Z,100393.45
2019-02-05T16:51:38.934Z,100392.95
2019-02-05T16:54:05.132Z,100390.96
2019-02-05T16:56:31.394Z,100394.59
2019-02-05T16:58:57.655Z,100397.36
2019-02-05T17:01:23.961Z,100394.98
2019-02-05T17:03:50.230Z,100395.99
2019-02-05T17:06:16.499Z,100395.64
2019-02-05T17:08:42.694Z,100391.45
2019-02-05T17:11:08.860Z,100377.50
2019-02-05T17:13:35.118Z,100370.80
2019-02-05T17:16:01.307Z,100362.95
2019-02-05T17:18:28.068Z,100380.41
2019-02-05T17:20:54.325Z,100383.84
2019-02-05T17:23:21.556Z,100385.96
2019-02-05T17:25:47.708Z,100386.91
2019-02-05T17:28:14.233Z,100382.02
2019-02-05T17:30:40.535Z,100375.83
2019-02-05T17:33:07.032Z,100367.91
2019-02-05T17:35:35.384Z,100367.41
2019-02-05T17:38:01.702Z,100385.22
2019-02-05T17:40:27.879Z,100388.73
2019-02-05T17:42:54.436Z,100383.53
2019-02-05T17:45:26.266Z,100382.27
2019-02-05T17:47:52.511Z,100371.50
2019-02-05T17:50:18.671Z,100373.75
2019-02-05T17:52:44.868Z,100370.39
2019-02-05T17:55:13.521Z,100367.23
2019-02-05T17:57:39.784Z,100374.95
2019-02-05T18:00:09.598Z,100370.27
2019-02-05T18:02:35.759Z,100368.58
2019-02-05T18:05:04.139Z,100361.61
2019-02-05T18:07:30.427Z,100355.45
2019-02-05T18:09:57.408Z,100355.48
2019-02-05T18:12:23.676Z,100366.48
2019-02-05T18:14:50.181Z,100370.26
2019-02-05T18:17:16.338Z,100364.20
2019-02-05T18:19:42.501Z,100350.42
2019-02-05T18:22:08.794Z,100355.73
2019-02-05T18:24:35.117Z,100354.14
2019-02-05T18:27:01.285Z,100347.95
2019-02-05T18:29:36.718Z,100341.33
2019-02-05T18:32:03.577Z,100347.28
2019-02-05T18:34:29.771Z,100346.75
2019-02-05T18:36:55.983Z,100333.56
2019-02-05T18:39:22.254Z,100330.51
2019-02-05T18:41:48.511Z,100341.97
2019-02-05T18:44:14.711Z,100344.02
2019-02-05T18:46:40.869Z,100339.95
2019-02-05T18:49:08.304Z,100345.97
2019-02-05T18:51:35.234Z,100353.03
2019-02-05T18:54:01.395Z,100356.77
2019-02-05T18:56:27.561Z,100359.41
2019-02-05T18:58:53.776Z,100355.37
2019-02-05T19:01:20.086Z,100363.34
2019-02-05T19:03:46.315Z,100369.08
2019-02-05T19:06:12.613Z,100372.48
2019-02-05T19:08:38.773Z,100365.16
2019-02-05T19:11:05.341Z,100366.05
2019-02-05T19:13:31.525Z,100375.64
2019-02-05T19:15:57.685Z,100371.73
2019-02-05T19:18:24.311Z,100370.53
2019-02-05T19:20:50.505Z,100373.28
2019-02-05T19:23:16.661Z,100375.31
2019-02-05T19:25:44.927Z,100372.27
2019-02-05T19:28:13.013Z,100371.92
2019-02-05T19:30:44.328Z,100371.59
2019-02-05T19:33:10.598Z,100359.00
2019-02-05T19:35:36.876Z,100357.58
2019-02-05T19:38:05.411Z,100366.17
2019-02-05T19:40:32.608Z,100360.52
2019-02-05T19:42:58.808Z,100352.94
2019-02-05T19:45:43.522Z,100360.07
2019-02-05T19:48:28.299Z,100352.59
2019-02-05T19:50:55.139Z,100340.70
2019-02-05T19:53:21.411Z,100340.98
2019-02-05T19:55:48.111Z,100347.91
2019-02-05T19:58:14.266Z,100348.23
2019-02-05T20:00:40.432Z,100370.52
2019-02-05T20:03:06.729Z,100376.89
2019-02-05T20:05:33.115Z,100373.88
2019-02-05T20:07:59.373Z,100370.52
2019-02-05T20:10:25.677Z,100364.36
2019-02-05T20:12:51.847Z,100365.08
2019-02-05T20:15:19.742Z,100375.17
2019-02-05T20:17:46.299Z,100376.66
2019-02-05T20:20:14.387Z,100361.03
2019-02-05T20:22:40.552Z,100355.48
2019-02-05T20:25:10.469Z,100368.02
2019-02-05T20:27:36.723Z,100362.03
2019-02-05T20:30:20.958Z,100365.57
2019-02-05T20:32:47.545Z,100370.59
2019-02-05T20:35:13.716Z,100362.33
2019-02-05T20:37:40.092Z,100362.52
2019-02-05T20:40:13.247Z,100355.48
2019-02-05T20:42:39.516Z,100355.13
2019-02-05T20:45:08.701Z,100357.64
2019-02-05T20:47:34.866Z,100369.75
2019-02-05T20:50:01.033Z,100367.09
2019-02-05T20:52:27.320Z,100359.83
2019-02-05T20:54:53.485Z,100356.41
2019-02-05T20:57:19.647Z,100354.45
2019-02-05T20:59:46.132Z,100348.72
2019-02-05T21:02:12.600Z,100346.87
2019-02-05T21:04:47.887Z,100336.95
2019-02-05T21:07:07.242Z,100335.14
2019-02-05T21:09:33.408Z,100334.56
2019-02-05T21:11:59.564Z,100330.89
2019-02-05T21:14:25.853Z,100335.11
2019-02-05T21:16:52.018Z,100329.84
2019-02-05T21:19:18.292Z,100317.89
2019-02-05T21:21:44.888Z,100311.67
2019-02-05T21:24:11.046Z,100319.61
2019-02-05T21:26:37.302Z,100322.80
2019-02-05T21:29:03.885Z,100315.58
2019-02-05T21:31:30.054Z,100328.30
2019-02-05T21:33:56.249Z,100322.37
2019-02-05T21:36:22.539Z,100319.69
2019-02-05T21:38:48.709Z,100303.97
2019-02-05T21:41:14.862Z,100296.90
2019-02-05T21:43:41.449Z,100303.55
2019-02-05T21:46:07.608Z,100291.47
2019-02-05T21:48:33.867Z,100289.98
2019-02-05T21:51:00.156Z,100289.99
2019-02-05T21:53:26.310Z,100289.19
2019-02-05T21:55:52.464Z,100297.87
2019-02-05T21:58:18.658Z,100291.33
2019-02-05T22:00:44.979Z,100282.11
2019-02-05T22:03:11.182Z,100285.17
2019-02-05T22:05:38.437Z,100285.96
2019-02-05T22:08:04.999Z,100278.70
2019-02-05T22:10:31.346Z,100283.48
2019-02-05T22:12:57.806Z,100281.77
2019-02-05T22:15:24.463Z,100283.41
2019-02-05T22:17:50.616Z,100275.71
2019-02-05T22:20:21.999Z,100284.36
2019-02-05T22:22:48.158Z,100271.80
2019-02-05T22:25:17.020Z,100286.05
2019-02-05T22:27:43.218Z,100285.97
2019-02-05T22:30:13.648Z,100280.08
2019-02-05T22:32:40.299Z,100284.05
2019-02-05T22:35:07.003Z,100292.41
2019-02-05T22:37:33.160Z,100305.56
2019-02-05T22:39:59.322Z,100285.83
2019-02-05T22:42:25.514Z,100283.09
2019-02-05T22:44:52.062Z,100279.75
2019-02-05T22:47:18.318Z,100281.77
2019-02-05T22:49:44.611Z,100271.36
2019-02-05T22:52:10.760Z,100265.94
2019-02-05T22:54:36.927Z,100264.51
2019-02-05T22:57:03.418Z,100243.87
2019-02-05T22:59:30.148Z,100243.39
2019-02-05T23:01:56.846Z,100230.33
2019-02-05T23:04:26.743Z,100229.87
2019-02-05T23:06:56.608Z,100226.79
2019-02-05T23:09:29.167Z,100219.59
2019-02-05T23:12:20.142Z,100221.60
2019-02-05T23:14:52.682Z,100208.98
2019-02-05T23:17:18.930Z,100218.45
2019-02-05T23:19:45.187Z,100215.59
2019-02-05T23:22:11.370Z,100219.95
2019-02-05T23:24:37.527Z,100219.59
2019-02-05T23:27:03.681Z,100211.38
2019-02-05T23:29:29.978Z,100215.36
2019-02-05T23:31:57.255Z,100204.62
2019-02-05T23:34:23.423Z,100202.41
2019-02-05T23:36:49.612Z,100197.73
2019-02-05T23:39:15.764Z,100199.80
2019-02-05T23:41:41.922Z,100197.59
2019-02-05T23:44:08.112Z,100190.73
2019-02-05T23:46:34.272Z,100192.22
2019-02-05T23:49:00.568Z,100195.24
2019-02-05T23:51:26.738Z,100203.81
2019-02-05T23:53:53.200Z,100207.19
2019-02-05T23:56:25.641Z,100202.48
2019-02-05T23:58:47.564Z,100189.34
